BAW1021 URSS-URMM
Flight info
| Callsign | BAW1021 |
|---|---|
| Flight time | N/A |
| Altitude | 25000 |
| Route | IRGID1S IRGID A944 GUBOR G487 ERSAR B967 ABELA ABELA5A |
| Aircraft | L101/H-SDFGHIRWXY/S |
Departure
| Time | N/A |
|---|---|
| Airport | Sochi International Airport (URSS) |
Arrival
| Time | 2026-04-25 20:40 |
|---|---|
| Airport | Mineralnye Vody Airport (URMM) |
| Time | Latitude | Longitude | Altitude | Speed | Heading |
|---|---|---|---|---|---|
| 2026-04-25 20:20 | 43.83864 | 40.35820 | 25153 ft | 516 kts | 79° |
| 2026-04-25 20:20 | 43.84485 | 40.40714 | 25156 ft | 516 kts | 79° |
| 2026-04-25 20:20 | 43.85103 | 40.45605 | 25152 ft | 515 kts | 79° |
| 2026-04-25 20:20 | 43.85721 | 40.50496 | 25148 ft | 515 kts | 79° |
| 2026-04-25 20:21 | 43.86334 | 40.55367 | 25145 ft | 515 kts | 79° |
| 2026-04-25 20:21 | 43.86941 | 40.60203 | 25145 ft | 515 kts | 79° |
| 2026-04-25 20:21 | 43.87552 | 40.65090 | 25145 ft | 515 kts | 79° |
| 2026-04-25 20:21 | 43.88325 | 40.69932 | 25117 ft | 514 kts | 71° |
| 2026-04-25 20:22 | 43.89589 | 40.74536 | 25146 ft | 511 kts | 64° |
| 2026-04-25 20:22 | 43.90081 | 40.76060 | 25154 ft | 511 kts | 64° |
| 2026-04-25 20:22 | 43.92449 | 40.83566 | 25144 ft | 511 kts | 66° |
| 2026-04-25 20:22 | 43.93757 | 40.88157 | 25142 ft | 511 kts | 67° |
| 2026-04-25 20:23 | 43.95058 | 40.92740 | 25149 ft | 511 kts | 66° |
| 2026-04-25 20:23 | 43.96395 | 40.97240 | 25146 ft | 510 kts | 65° |
| 2026-04-25 20:23 | 43.97792 | 41.01764 | 25143 ft | 510 kts | 65° |
| 2026-04-25 20:23 | 43.99203 | 41.06285 | 25152 ft | 511 kts | 65° |
| 2026-04-25 20:24 | 44.00608 | 41.10818 | 25151 ft | 511 kts | 65° |
| 2026-04-25 20:24 | 44.02003 | 41.15361 | 25139 ft | 510 kts | 65° |
| 2026-04-25 20:24 | 44.03389 | 41.19895 | 25156 ft | 510 kts | 65° |
| 2026-04-25 20:24 | 44.04777 | 41.24426 | 25160 ft | 510 kts | 65° |
| 2026-04-25 20:25 | 44.06169 | 41.28956 | 25157 ft | 510 kts | 65° |
| 2026-04-25 20:25 | 44.07559 | 41.33485 | 25162 ft | 509 kts | 65° |
| 2026-04-25 20:25 | 44.08929 | 41.37959 | 25159 ft | 510 kts | 65° |
| 2026-04-25 20:25 | 44.10311 | 41.42494 | 25166 ft | 510 kts | 66° |
| 2026-04-25 20:26 | 44.11419 | 41.47184 | 25135 ft | 512 kts | 77° |
| 2026-04-25 20:26 | 44.11881 | 41.52088 | 25120 ft | 513 kts | 85° |
| 2026-04-25 20:26 | 44.12134 | 41.57051 | 24734 ft | 515 kts | 85° |
| 2026-04-25 20:26 | 44.12496 | 41.61990 | 24267 ft | 511 kts | 82° |
| 2026-04-25 20:27 | 44.12974 | 41.66871 | 23806 ft | 507 kts | 81° |
| 2026-04-25 20:27 | 44.13451 | 41.71717 | 23232 ft | 504 kts | 82° |
| 2026-04-25 20:27 | 44.13850 | 41.76492 | 22461 ft | 501 kts | 83° |
| 2026-04-25 20:27 | 44.14185 | 41.81289 | 21663 ft | 495 kts | 84° |
| 2026-04-25 20:28 | 44.14494 | 41.86042 | 20916 ft | 490 kts | 84° |
| 2026-04-25 20:28 | 44.14802 | 41.90674 | 20188 ft | 469 kts | 84° |
| 2026-04-25 20:28 | 44.15106 | 41.95085 | 19487 ft | 448 kts | 84° |
| 2026-04-25 20:28 | 44.15398 | 41.99313 | 18800 ft | 430 kts | 84° |
| 2026-04-25 20:29 | 44.15675 | 42.03391 | 18066 ft | 416 kts | 84° |
| 2026-04-25 20:29 | 44.15937 | 42.07333 | 17300 ft | 403 kts | 84° |
| 2026-04-25 20:29 | 44.16186 | 42.11125 | 16560 ft | 393 kts | 84° |
| 2026-04-25 20:29 | 44.16430 | 42.14867 | 15810 ft | 384 kts | 84° |
| 2026-04-25 20:30 | 44.16667 | 42.18502 | 15037 ft | 364 kts | 84° |
| 2026-04-25 20:30 | 44.16886 | 42.21896 | 14315 ft | 341 kts | 84° |
| 2026-04-25 20:30 | 44.17091 | 42.25092 | 13603 ft | 330 kts | 84° |
| 2026-04-25 20:30 | 44.17293 | 42.28267 | 12922 ft | 328 kts | 84° |
| 2026-04-25 20:31 | 44.17494 | 42.31427 | 12230 ft | 327 kts | 85° |
| 2026-04-25 20:31 | 44.17694 | 42.34576 | 11529 ft | 327 kts | 85° |
| 2026-04-25 20:31 | 44.17891 | 42.37681 | 10873 ft | 325 kts | 85° |
| 2026-04-25 20:31 | 44.18086 | 42.40797 | 10286 ft | 322 kts | 85° |
| 2026-04-25 20:32 | 44.18278 | 42.43892 | 9647 ft | 319 kts | 85° |
| 2026-04-25 20:32 | 44.18467 | 42.46963 | 8986 ft | 317 kts | 85° |
| 2026-04-25 20:32 | 44.18654 | 42.50002 | 8388 ft | 312 kts | 84° |
| 2026-04-25 20:32 | 44.18839 | 42.52987 | 7877 ft | 305 kts | 84° |
| 2026-04-25 20:33 | 44.19023 | 42.55903 | 7378 ft | 299 kts | 83° |
| 2026-04-25 20:33 | 44.19399 | 42.58721 | 6866 ft | 293 kts | 71° |
| 2026-04-25 20:33 | 44.20080 | 42.61356 | 6377 ft | 286 kts | 65° |
| 2026-04-25 20:33 | 44.20580 | 42.63048 | 6038 ft | 283 kts | 66° |
| 2026-04-25 20:34 | 44.21514 | 42.66390 | 5353 ft | 277 kts | 68° |
| 2026-04-25 20:34 | 44.22186 | 42.68881 | 4842 ft | 272 kts | 68° |
| 2026-04-25 20:34 | 44.22861 | 42.71280 | 4432 ft | 255 kts | 68° |
| 2026-04-25 20:34 | 44.23459 | 42.73495 | 4120 ft | 234 kts | 75° |
| 2026-04-25 20:35 | 44.23652 | 42.75643 | 3898 ft | 214 kts | 90° |
| 2026-04-25 20:35 | 44.23581 | 42.77623 | 3717 ft | 198 kts | 94° |
| 2026-04-25 20:35 | 44.23581 | 42.79521 | 3775 ft | 191 kts | 88° |
| 2026-04-25 20:35 | 44.23704 | 42.81352 | 3775 ft | 197 kts | 84° |
| 2026-04-25 20:36 | 44.23971 | 42.83290 | 3648 ft | 208 kts | 76° |
| 2026-04-25 20:36 | 44.24350 | 42.85245 | 3475 ft | 211 kts | 74° |
| 2026-04-25 20:36 | 44.24767 | 42.87216 | 3301 ft | 212 kts | 74° |
| 2026-04-25 20:36 | 44.25181 | 42.89104 | 3202 ft | 197 kts | 73° |
| 2026-04-25 20:37 | 44.25582 | 42.90893 | 3009 ft | 189 kts | 73° |
| 2026-04-25 20:37 | 44.25962 | 42.92556 | 2935 ft | 168 kts | 73° |
| 2026-04-25 20:37 | 44.26230 | 42.94009 | 2867 ft | 145 kts | 81° |
| 2026-04-25 20:37 | 44.26400 | 42.95351 | 2921 ft | 141 kts | 82° |
| 2026-04-25 20:38 | 44.26529 | 42.96735 | 2736 ft | 151 kts | 87° |
| 2026-04-25 20:38 | 44.26581 | 42.98209 | 2522 ft | 152 kts | 92° |
| 2026-04-25 20:38 | 44.26450 | 42.99661 | 2211 ft | 149 kts | 104° |
| 2026-04-25 20:38 | 44.26057 | 43.00948 | 1931 ft | 141 kts | 121° |
| 2026-04-25 20:39 | 44.25514 | 43.02090 | 1725 ft | 141 kts | 124° |
| 2026-04-25 20:39 | 44.24984 | 43.03255 | 1561 ft | 143 kts | 122° |
| 2026-04-25 20:39 | 44.24442 | 43.04432 | 1370 ft | 144 kts | 122° |
| 2026-04-25 20:39 | 44.24092 | 43.05217 | 1255 ft | 143 kts | 122° |
| 2026-04-25 20:40 | 44.23389 | 43.06746 | 1056 ft | 131 kts | 122° |
| 2026-04-25 20:40 | 44.23014 | 43.07564 | 1057 ft | 59 kts | 123° |
| 2026-04-25 20:40 | 44.22818 | 43.07994 | 1054 ft | 49 kts | 123° |
| 2026-04-25 20:40 | 44.22651 | 43.08368 | 1059 ft | 43 kts | 124° |
| 2026-04-25 20:41 | 44.22506 | 43.08677 | 1060 ft | 34 kts | 128° |
| 2026-04-25 20:41 | 44.22367 | 43.08843 | 1057 ft | 16 kts | 153° |
| 2026-04-25 20:41 | 44.22328 | 43.08870 | 1057 ft | 0 kts | 154° |
| 2026-04-25 20:41 | 44.22312 | 43.08881 | 1057 ft | 4 kts | 155° |
| 2026-04-25 20:42 | 44.22275 | 43.08905 | 1059 ft | 7 kts | 154° |
| 2026-04-25 20:42 | 44.22240 | 43.08928 | 1058 ft | 0 kts | 154° |
| 2026-04-25 20:42 | 44.22237 | 43.08930 | 1059 ft | 2 kts | 154° |
| 2026-04-25 20:42 | 44.22210 | 43.08949 | 1059 ft | 6 kts | 153° |
| 2026-04-25 20:43 | 44.22162 | 43.08986 | 1058 ft | 10 kts | 150° |
| 2026-04-25 20:43 | 44.22087 | 43.09044 | 1057 ft | 14 kts | 152° |
| 2026-04-25 20:43 | 44.21986 | 43.09121 | 1056 ft | 19 kts | 151° |
| 2026-04-25 20:43 | 44.21910 | 43.09103 | 1056 ft | 9 kts | 211° |
| 2026-04-25 20:44 | 44.21845 | 43.09061 | 1056 ft | 10 kts | 178° |
| 2026-04-25 20:44 | 44.21795 | 43.09123 | 1056 ft | 8 kts | 126° |
| 2026-04-25 20:44 | 44.21747 | 43.09163 | 1056 ft | 8 kts | 206° |
| 2026-04-25 20:44 | 44.21716 | 43.09135 | 1056 ft | 6 kts | 213° |
| 2026-04-25 20:45 | 44.21701 | 43.09121 | 1056 ft | 2 kts | 212° |
| 2026-04-25 20:45 | 44.21699 | 43.09119 | 1056 ft | 0 kts | 212° |